sensor_id;sensor_type;location;lat;lon;timestamp;temperature;humidity
81313;DHT22;70780;52.722;5.724;2023-06-26T02:20:11;27.20;54.00
81313;DHT22;70780;52.722;5.724;2023-06-26T02:22:42;27.20;54.00
81313;DHT22;70780;52.722;5.724;2023-06-26T02:25:11;27.20;54.00
81313;DHT22;70780;52.722;5.724;2023-06-26T02:27:40;27.20;54.00
81313;DHT22;70780;52.722;5.724;2023-06-26T02:30:10;27.20;54.00
81313;DHT22;70780;52.722;5.724;2023-06-26T02:32:39;27.20;54.00
81313;DHT22;70780;52.722;5.724;2023-06-26T02:35:11;27.20;54.10
81313;DHT22;70780;52.722;5.724;2023-06-26T02:37:44;27.20;54.10
81313;DHT22;70780;52.722;5.724;2023-06-26T02:40:14;27.20;54.20
81313;DHT22;70780;52.722;5.724;2023-06-26T02:42:43;27.20;54.20
81313;DHT22;70780;52.722;5.724;2023-06-26T02:45:12;27.20;54.20
81313;DHT22;70780;52.722;5.724;2023-06-26T02:47:42;27.20;54.30
81313;DHT22;70780;52.722;5.724;2023-06-26T02:50:14;27.20;54.30
81313;DHT22;70780;52.722;5.724;2023-06-26T02:53:06;27.20;54.30
81313;DHT22;70780;52.722;5.724;2023-06-26T02:55:38;27.20;54.40
81313;DHT22;70780;52.722;5.724;2023-06-26T02:58:07;27.20;54.40
81313;DHT22;70780;52.722;5.724;2023-06-26T03:00:38;27.20;54.50
81313;DHT22;70780;52.722;5.724;2023-06-26T03:03:14;27.20;54.60
81313;DHT22;70780;52.722;5.724;2023-06-26T03:05:45;27.20;54.60
81313;DHT22;70780;52.722;5.724;2023-06-26T03:08:15;27.20;54.60
81313;DHT22;70780;52.722;5.724;2023-06-26T03:10:44;27.20;54.70
81313;DHT22;70780;52.722;5.724;2023-06-26T03:13:13;27.20;54.70
81313;DHT22;70780;52.722;5.724;2023-06-26T03:15:44;27.20;54.70
81313;DHT22;70780;52.722;5.724;2023-06-26T03:18:13;27.20;54.80
81313;DHT22;70780;52.722;5.724;2023-06-26T03:20:45;27.20;54.80
81313;DHT22;70780;52.722;5.724;2023-06-26T03:23:15;27.20;54.90
81313;DHT22;70780;52.722;5.724;2023-06-26T03:25:44;27.20;54.90
81313;DHT22;70780;52.722;5.724;2023-06-26T03:28:26;27.20;54.90
81313;DHT22;70780;52.722;5.724;2023-06-26T03:30:57;27.20;55.00
81313;DHT22;70780;52.722;5.724;2023-06-26T03:33:26;27.10;55.00
81313;DHT22;70780;52.722;5.724;2023-06-26T03:35:59;27.10;55.00
81313;DHT22;70780;52.722;5.724;2023-06-26T03:38:29;27.10;55.10
81313;DHT22;70780;52.722;5.724;2023-06-26T03:40:59;27.10;55.10
81313;DHT22;70780;52.722;5.724;2023-06-26T03:43:29;27.10;55.20
81313;DHT22;70780;52.722;5.724;2023-06-26T03:46:19;27.10;55.20
81313;DHT22;70780;52.722;5.724;2023-06-26T03:48:48;27.10;55.20
81313;DHT22;70780;52.722;5.724;2023-06-26T03:51:20;27.10;55.30
81313;DHT22;70780;52.722;5.724;2023-06-26T03:53:49;27.10;55.30
81313;DHT22;70780;52.722;5.724;2023-06-26T03:56:19;27.10;55.30
81313;DHT22;70780;52.722;5.724;2023-06-26T03:58:49;27.10;55.40
81313;DHT22;70780;52.722;5.724;2023-06-26T04:01:18;27.10;55.40
81313;DHT22;70780;52.722;5.724;2023-06-26T04:03:49;27.10;55.40
81313;DHT22;70780;52.722;5.724;2023-06-26T04:06:21;27.10;55.40
81313;DHT22;70780;52.722;5.724;2023-06-26T04:08:50;27.10;55.40
81313;DHT22;70780;52.722;5.724;2023-06-26T04:11:19;27.10;55.40
81313;DHT22;70780;52.722;5.724;2023-06-26T04:13:49;27.10;55.50
81313;DHT22;70780;52.722;5.724;2023-06-26T04:16:19;27.10;55.40
81313;DHT22;70780;52.722;5.724;2023-06-26T04:18:51;27.10;55.40
81313;DHT22;70780;52.722;5.724;2023-06-26T04:21:25;27.10;55.40
81313;DHT22;70780;52.722;5.724;2023-06-26T04:23:54;27.10;55.40
81313;DHT22;70780;52.722;5.724;2023-06-26T04:26:23;27.10;55.50
81313;DHT22;70780;52.722;5.724;2023-06-26T04:28:54;27.10;55.50
81313;DHT22;70780;52.722;5.724;2023-06-26T04:31:23;27.10;55.50
81313;DHT22;70780;52.722;5.724;2023-06-26T04:33:52;27.10;55.50
81313;DHT22;70780;52.722;5.724;2023-06-26T04:36:24;27.10;55.50
81313;DHT22;70780;52.722;5.724;2023-06-26T04:38:55;27.10;55.50
81313;DHT22;70780;52.722;5.724;2023-06-26T04:41:25;27.10;55.50
81313;DHT22;70780;52.722;5.724;2023-06-26T04:43:55;27.10;55.50
81313;DHT22;70780;52.722;5.724;2023-06-26T04:46:24;27.00;55.60
81313;DHT22;70780;52.722;5.724;2023-06-26T04:48:54;27.00;55.50
81313;DHT22;70780;52.722;5.724;2023-06-26T04:51:27;27.00;55.60
81313;DHT22;70780;52.722;5.724;2023-06-26T04:53:56;27.00;55.60
81313;DHT22;70780;52.722;5.724;2023-06-26T04:56:25;27.00;55.60
81313;DHT22;70780;52.722;5.724;2023-06-26T04:58:57;27.00;55.60
81313;DHT22;70780;52.722;5.724;2023-06-26T05:01:26;27.00;55.60
81313;DHT22;70780;52.722;5.724;2023-06-26T05:03:58;27.00;55.60
81313;DHT22;70780;52.722;5.724;2023-06-26T05:06:31;27.00;55.60
81313;DHT22;70780;52.722;5.724;2023-06-26T05:09:00;27.00;55.60
81313;DHT22;70780;52.722;5.724;2023-06-26T05:11:29;27.00;55.50
81313;DHT22;70780;52.722;5.724;2023-06-26T05:13:58;27.00;55.50
81313;DHT22;70780;52.722;5.724;2023-06-26T05:16:28;27.00;55.50
81313;DHT22;70780;52.722;5.724;2023-06-26T05:18:57;27.00;55.50
81313;DHT22;70780;52.722;5.724;2023-06-26T05:21:30;27.00;55.50
81313;DHT22;70780;52.722;5.724;2023-06-26T05:24:03;27.00;55.40
81313;DHT22;70780;52.722;5.724;2023-06-26T05:26:33;27.00;55.40
81313;DHT22;70780;52.722;5.724;2023-06-26T05:29:03;27.00;55.30
81313;DHT22;70780;52.722;5.724;2023-06-26T05:31:33;27.00;55.30
81313;DHT22;70780;52.722;5.724;2023-06-26T05:34:05;27.00;55.30
81313;DHT22;70780;52.722;5.724;2023-06-26T05:36:38;27.00;55.20
81313;DHT22;70780;52.722;5.724;2023-06-26T05:39:08;27.00;55.20
81313;DHT22;70780;52.722;5.724;2023-06-26T05:41:38;27.00;55.20
81313;DHT22;70780;52.722;5.724;2023-06-26T05:44:07;27.00;55.10
81313;DHT22;70780;52.722;5.724;2023-06-26T05:46:37;27.00;55.10
81313;DHT22;70780;52.722;5.724;2023-06-26T05:49:06;27.00;55.10
81313;DHT22;70780;52.722;5.724;2023-06-26T05:51:39;27.00;55.10
81313;DHT22;70780;52.722;5.724;2023-06-26T05:54:09;27.00;55.10
81313;DHT22;70780;52.722;5.724;2023-06-26T05:56:40;27.00;55.10
81313;DHT22;70780;52.722;5.724;2023-06-26T05:59:10;27.00;55.00
81313;DHT22;70780;52.722;5.724;2023-06-26T06:01:40;27.00;55.10
81313;DHT22;70780;52.722;5.724;2023-06-26T06:04:09;27.00;55.00
81313;DHT22;70780;52.722;5.724;2023-06-26T15:23:16;28.50;45.70
81313;DHT22;70780;52.722;5.724;2023-06-26T15:25:46;28.50;45.50
81313;DHT22;70780;52.722;5.724;2023-06-26T15:28:15;28.50;45.60
81313;DHT22;70780;52.722;5.724;2023-06-26T15:30:45;28.50;45.70
81313;DHT22;70780;52.722;5.724;2023-06-26T15:33:14;28.50;45.80
81313;DHT22;70780;52.722;5.724;2023-06-26T15:35:43;28.50;46.00
81313;DHT22;70780;52.722;5.724;2023-06-26T15:38:15;28.60;46.10
81313;DHT22;70780;52.722;5.724;2023-06-26T15:40:45;28.60;46.20
81313;DHT22;70780;52.722;5.724;2023-06-26T15:43:14;28.60;46.40
81313;DHT22;70780;52.722;5.724;2023-06-26T15:45:43;28.60;46.50
81313;DHT22;70780;52.722;5.724;2023-06-26T15:48:12;28.70;46.70
81313;DHT22;70780;52.722;5.724;2023-06-26T15:50:42;28.70;46.80
81313;DHT22;70780;52.722;5.724;2023-06-26T15:53:18;28.70;46.80
81313;DHT22;70780;52.722;5.724;2023-06-26T15:55:47;28.80;47.00
81313;DHT22;70780;52.722;5.724;2023-06-26T15:58:16;28.90;47.00
81313;DHT22;70780;52.722;5.724;2023-06-26T16:00:46;28.90;47.00
81313;DHT22;70780;52.722;5.724;2023-06-26T16:03:15;28.90;47.10
81313;DHT22;70780;52.722;5.724;2023-06-26T16:05:44;28.90;47.10
81313;DHT22;70780;52.722;5.724;2023-06-26T16:08:13;28.90;47.20
81313;DHT22;70780;52.722;5.724;2023-06-26T16:10:45;28.90;47.30
81313;DHT22;70780;52.722;5.724;2023-06-26T16:13:15;29.00;47.40
81313;DHT22;70780;52.722;5.724;2023-06-26T16:15:46;29.00;47.40
81313;DHT22;70780;52.722;5.724;2023-06-26T16:18:15;29.00;47.40
81313;DHT22;70780;52.722;5.724;2023-06-26T16:20:45;29.00;47.40
81313;DHT22;70780;52.722;5.724;2023-06-26T16:23:15;29.00;47.50
81313;DHT22;70780;52.722;5.724;2023-06-26T16:25:47;29.10;47.50
81313;DHT22;70780;52.722;5.724;2023-06-26T16:28:16;29.10;47.50
81313;DHT22;70780;52.722;5.724;2023-06-26T16:30:45;29.10;47.60
81313;DHT22;70780;52.722;5.724;2023-06-26T16:33:15;29.10;47.60
81313;DHT22;70780;52.722;5.724;2023-06-26T16:35:44;29.10;47.70
81313;DHT22;70780;52.722;5.724;2023-06-26T16:38:13;29.10;47.70
81313;DHT22;70780;52.722;5.724;2023-06-26T16:40:45;29.10;47.50
